Time;durP1;ratioP1;P1;durP2;ratioP2;P2;SDS_P1;SDS_P2;PMS_P1;PMS_P2;Temp;Humidity;BMP_temperature;BMP_pressure;BME280_temperature;BME280_humidity;BME280_pressure;Samples;Min_cycle;Max_cycle;Signal;HPM_P1;HPM_P2
2022/02/13 00:00:15;;;;;;;20.08;7.32;;;;;;;;;;5077006;28;20107;-83
2022/02/13 00:02:42;;;;;;;21.27;8.10;;;;;;;;;;5077129;28;20472;-82
2022/02/13 00:05:09;;;;;;;27.75;11.20;;;;;;;;;;5058977;28;20043;-81
2022/02/13 00:07:35;;;;;;;24.77;11.43;;;;;;;;;;5076610;28;20096;-83
2022/02/13 00:10:03;;;;;;;23.40;10.77;;;;;;;;;;5077051;28;20059;-83
2022/02/13 00:12:29;;;;;;;17.88;9.35;;;;;;;;;;5076950;28;20031;-83
2022/02/13 00:14:56;;;;;;;18.05;9.05;;;;;;;;;;5058470;28;20036;-84
2022/02/13 00:17:23;;;;;;;13.82;7.20;;;;;;;;;;5059065;28;20048;-83
2022/02/13 00:19:50;;;;;;;18.25;7.93;;;;;;;;;;5076475;28;20028;-84
2022/02/13 00:22:17;;;;;;;12.45;7.18;;;;;;;;;;5076936;28;20055;-82
2022/02/13 00:24:43;;;;;;;12.68;7.20;;;;;;;;;;5076639;28;20527;-82
2022/02/13 00:27:10;;;;;;;13.65;7.05;;;;;;;;;;5076360;28;20103;-82
2022/02/13 00:29:36;;;;;;;15.55;6.75;;;;;;;;;;5076796;28;20027;-82
2022/02/13 00:32:03;;;;;;;12.77;7.18;;;;;;;;;;5076590;28;20032;-82
2022/02/13 00:34:29;;;;;;;11.25;5.95;;;;;;;;;;5058012;28;20028;-81
2022/02/13 00:36:55;;;;;;;13.93;7.18;;;;;;;;;;5076565;28;20421;-82
2022/02/13 00:39:21;;;;;;;11.50;6.28;;;;;;;;;;5076689;28;20020;-82
2022/02/13 00:41:48;;;;;;;13.45;6.68;;;;;;;;;;5076866;28;20036;-83
2022/02/13 00:44:14;;;;;;;12.80;7.43;;;;;;;;;;5079133;28;20025;-81
2022/02/13 00:46:40;;;;;;;12.77;6.60;;;;;;;;;;5076992;28;20033;-82
2022/02/13 00:49:06;;;;;;;12.50;6.43;;;;;;;;;;5076962;28;20020;-80
2022/02/13 00:51:33;;;;;;;12.57;5.40;;;;;;;;;;5058423;28;20029;-81
2022/02/13 00:53:59;;;;;;;11.05;5.65;;;;;;;;;;5076109;28;20066;-80
2022/02/13 00:56:25;;;;;;;11.80;5.80;;;;;;;;;;5076962;28;20432;-82
2022/02/13 00:58:52;;;;;;;9.00;4.95;;;;;;;;;;5058107;28;20115;-82
2022/02/13 01:01:19;;;;;;;10.93;5.47;;;;;;;;;;5058237;28;20104;-83
2022/02/13 01:03:45;;;;;;;13.48;5.75;;;;;;;;;;5057939;28;20035;-81
2022/02/13 01:06:12;;;;;;;9.98;5.38;;;;;;;;;;5075917;28;20033;-81
2022/02/13 01:08:39;;;;;;;11.38;5.63;;;;;;;;;;5057966;28;20389;-82
2022/02/13 01:11:05;;;;;;;10.75;5.32;;;;;;;;;;5075722;28;20063;-82
2022/02/13 01:13:31;;;;;;;13.48;5.10;;;;;;;;;;5075722;28;20017;-81
2022/02/13 01:15:58;;;;;;;8.70;5.25;;;;;;;;;;5075543;28;20028;-82
2022/02/13 01:18:24;;;;;;;9.30;4.78;;;;;;;;;;5057657;28;20119;-80
2022/02/13 01:20:51;;;;;;;9.73;5.20;;;;;;;;;;5057627;28;20025;-83
2022/02/13 01:23:18;;;;;;;9.02;5.05;;;;;;;;;;5057217;28;20024;-82
2022/02/13 01:25:44;;;;;;;10.00;4.75;;;;;;;;;;5075230;28;20060;-83
2022/02/13 01:28:10;;;;;;;11.57;5.10;;;;;;;;;;5075584;28;20020;-83
2022/02/13 01:30:36;;;;;;;9.93;4.72;;;;;;;;;;5057001;28;20028;-82
2022/02/13 01:33:03;;;;;;;11.05;5.13;;;;;;;;;;5075265;28;20032;-82
2022/02/13 01:35:30;;;;;;;10.95;6.07;;;;;;;;;;5075302;28;20031;-79
2022/02/13 01:37:56;;;;;;;13.00;7.18;;;;;;;;;;5074948;28;20024;-81
2022/02/13 01:40:22;;;;;;;10.57;5.72;;;;;;;;;;5057238;28;20020;-79
2022/02/13 01:42:48;;;;;;;13.82;5.85;;;;;;;;;;5075080;28;20052;-80
2022/02/13 01:45:15;;;;;;;10.65;5.40;;;;;;;;;;5056700;28;20043;-80
2022/02/13 01:47:41;;;;;;;12.52;5.47;;;;;;;;;;5074976;28;20096;-80
2022/02/13 01:50:09;;;;;;;9.38;5.35;;;;;;;;;;5057015;28;20455;-79
2022/02/13 01:52:35;;;;;;;11.10;5.57;;;;;;;;;;5074589;28;20044;-81
2022/02/13 01:55:02;;;;;;;13.52;6.60;;;;;;;;;;5074805;28;20020;-80
2022/02/13 01:57:28;;;;;;;16.80;8.88;;;;;;;;;;5075133;28;20032;-81
2022/02/13 01:59:56;;;;;;;19.25;9.15;;;;;;;;;;5056445;28;20017;-83
2022/02/13 02:02:22;;;;;;;16.08;7.60;;;;;;;;;;5057013;28;20024;-83
2022/02/13 02:04:53;;;;;;;18.77;8.57;;;;;;;;;;5074790;28;20520;-82
2022/02/13 02:07:20;;;;;;;14.57;7.30;;;;;;;;;;5074296;28;20052;-81
2022/02/13 02:09:46;;;;;;;15.95;7.45;;;;;;;;;;5073721;28;20414;-80
2022/02/13 02:12:13;;;;;;;13.65;6.45;;;;;;;;;;5074095;28;20028;-80
2022/02/13 02:14:39;;;;;;;13.02;6.32;;;;;;;;;;5074498;28;20116;-81
2022/02/13 02:17:05;;;;;;;735.22;571.47;;;;;;;;;;5076428;28;20035;-81
2022/02/13 02:19:32;;;;;;;762.15;678.13;;;;;;;;;;5074604;28;20028;-81
2022/02/13 02:21:58;;;;;;;664.28;444.20;;;;;;;;;;5074642;28;20024;-83
2022/02/13 02:24:24;;;;;;;627.95;389.55;;;;;;;;;;5074411;28;20025;-80
2022/02/13 02:26:51;;;;;;;643.03;385.97;;;;;;;;;;5074145;28;20032;-82
2022/02/13 02:29:17;;;;;;;599.28;354.33;;;;;;;;;;5074651;28;20478;-81
2022/02/13 02:31:43;;;;;;;637.50;366.58;;;;;;;;;;5056668;28;20052;-82
2022/02/13 02:34:09;;;;;;;617.00;354.73;;;;;;;;;;5073835;28;20021;-82
2022/02/13 02:36:36;;;;;;;659.80;368.23;;;;;;;;;;5074463;28;20024;-82
2022/02/13 02:39:02;;;;;;;743.78;471.17;;;;;;;;;;5074138;28;20021;-81
2022/02/13 02:41:30;;;;;;;581.83;345.15;;;;;;;;;;5073519;28;20028;-80
2022/02/13 02:43:56;;;;;;;715.72;429.33;;;;;;;;;;5073992;28;20032;-82
2022/02/13 02:46:22;;;;;;;734.30;417.10;;;;;;;;;;5073890;28;20040;-80
2022/02/13 02:48:48;;;;;;;724.17;419.20;;;;;;;;;;5055756;28;20028;-80
2022/02/13 02:51:14;;;;;;;714.80;391.80;;;;;;;;;;5073799;28;20025;-80
2022/02/13 02:53:42;;;;;;;781.30;454.37;;;;;;;;;;5055893;28;20025;-81
2022/02/13 02:56:09;;;;;;;741.65;421.38;;;;;;;;;;5073388;28;20056;-80
2022/02/13 02:58:35;;;;;;;828.60;416.70;;;;;;;;;;5073857;28;20044;-83
2022/02/13 03:01:01;;;;;;;810.17;456.13;;;;;;;;;;5073817;28;20082;-83
2022/02/13 03:03:27;;;;;;;828.92;418.85;;;;;;;;;;5073512;28;20545;-83
2022/02/13 03:05:54;;;;;;;832.88;406.08;;;;;;;;;;5073901;28;20044;-83
2022/02/13 03:08:21;;;;;;;772.07;419.87;;;;;;;;;;5073787;28;20062;-82
2022/02/13 03:10:47;;;;;;;821.92;403.85;;;;;;;;;;5073362;28;20024;-81
2022/02/13 03:13:16;;;;;;;841.17;428.10;;;;;;;;;;5055650;28;20056;-81
2022/02/13 03:15:42;;;;;;;819.57;400.20;;;;;;;;;;5073314;28;20025;-82
2022/02/13 03:18:08;;;;;;;830.00;417.40;;;;;;;;;;5073471;28;20039;-82
2022/02/13 03:20:35;;;;;;;805.88;425.90;;;;;;;;;;5055458;28;20028;-83
2022/02/13 03:23:01;;;;;;;854.08;453.05;;;;;;;;;;5073360;28;20039;-83
2022/02/13 03:25:27;;;;;;;842.10;450.87;;;;;;;;;;5073302;28;20148;-80
2022/02/13 03:27:53;;;;;;;813.10;442.03;;;;;;;;;;5055527;28;20024;-82
2022/02/13 03:30:19;;;;;;;835.38;432.20;;;;;;;;;;5073155;28;20067;-82
2022/02/13 03:32:45;;;;;;;810.92;420.58;;;;;;;;;;5055637;28;20507;-82
2022/02/13 03:35:12;;;;;;;819.60;428.07;;;;;;;;;;5073421;28;20021;-83
2022/02/13 03:37:40;;;;;;;750.07;385.17;;;;;;;;;;5078566;28;20021;-83
2022/02/13 03:40:07;;;;;;;717.73;371.00;;;;;;;;;;5056587;28;20029;-83
2022/02/13 03:42:33;;;;;;;728.10;374.40;;;;;;;;;;5073647;28;20562;-83
2022/02/13 03:44:59;;;;;;;769.22;407.23;;;;;;;;;;5073193;28;20037;-83
2022/02/13 03:47:26;;;;;;;766.80;403.97;;;;;;;;;;5055690;28;20033;-81
2022/02/13 03:49:52;;;;;;;779.33;430.27;;;;;;;;;;5073498;28;20021;-81
2022/02/13 03:52:19;;;;;;;771.93;404.83;;;;;;;;;;5072918;28;20025;-80
2022/02/13 03:54:45;;;;;;;737.67;410.53;;;;;;;;;;5073828;28;20445;-81
2022/02/13 03:57:11;;;;;;;733.63;397.10;;;;;;;;;;5073230;28;20100;-82
2022/02/13 03:59:37;;;;;;;822.17;422.53;;;;;;;;;;5055287;28;20024;-84
2022/02/13 04:02:03;;;;;;;737.83;394.93;;;;;;;;;;5073535;28;20404;-83
2022/02/13 04:04:30;;;;;;;798.77;403.87;;;;;;;;;;5074045;28;20024;-84
2022/02/13 04:06:56;;;;;;;724.47;407.23;;;;;;;;;;5073095;28;20036;-84
2022/02/13 04:09:22;;;;;;;726.50;381.75;;;;;;;;;;5073555;28;20458;-82
2022/02/13 04:11:48;;;;;;;733.27;384.07;;;;;;;;;;5055042;28;20085;-82
2022/02/13 04:14:14;;;;;;;825.27;418.13;;;;;;;;;;5073237;28;20124;-82
2022/02/13 04:16:40;;;;;;;767.03;404.75;;;;;;;;;;5073227;28;20095;-84
2022/02/13 04:19:07;;;;;;;761.37;419.53;;;;;;;;;;5073041;28;20013;-83
2022/02/13 04:21:33;;;;;;;761.63;409.03;;;;;;;;;;5055165;28;20031;-83
2022/02/13 04:23:59;;;;;;;782.08;428.25;;;;;;;;;;5073035;28;20461;-83
2022/02/13 04:26:25;;;;;;;746.60;386.40;;;;;;;;;;5072468;28;20412;-82
2022/02/13 04:28:51;;;;;;;777.37;396.77;;;;;;;;;;5073128;28;20024;-83
2022/02/13 04:31:17;;;;;;;807.30;415.33;;;;;;;;;;5073004;28;20021;-83
2022/02/13 04:33:44;;;;;;;805.10;425.80;;;;;;;;;;5075278;28;20415;-83
2022/02/13 04:36:10;;;;;;;799.78;425.27;;;;;;;;;;5076718;28;20025;-83
2022/02/13 04:38:36;;;;;;;823.45;439.35;;;;;;;;;;5076785;28;20025;-82
2022/02/13 04:41:02;;;;;;;749.57;390.77;;;;;;;;;;5076284;28;20024;-84
2022/02/13 04:43:28;;;;;;;851.58;426.27;;;;;;;;;;5076479;28;20025;-82
2022/02/13 04:45:54;;;;;;;828.50;422.83;;;;;;;;;;5076707;28;20043;-83
2022/02/13 04:48:21;;;;;;;825.10;423.85;;;;;;;;;;5057939;28;20021;-83
2022/02/13 04:50:47;;;;;;;775.30;404.73;;;;;;;;;;5076204;28;20025;-82
2022/02/13 04:53:14;;;;;;;712.87;355.87;;;;;;;;;;5075993;28;20032;-82
2022/02/13 04:55:41;;;;;;;716.57;377.80;;;;;;;;;;5075684;28;20020;-83
2022/02/13 04:58:07;;;;;;;723.67;368.83;;;;;;;;;;5081384;28;20084;-83
2022/02/13 05:00:33;;;;;;;698.33;349.77;;;;;;;;;;5076956;28;20029;-86
2022/02/13 05:02:59;;;;;;;704.30;372.93;;;;;;;;;;5058645;28;20036;-85
2022/02/13 05:05:25;;;;;;;699.97;356.80;;;;;;;;;;5076371;28;20063;-82
2022/02/13 05:07:52;;;;;;;697.93;358.63;;;;;;;;;;5076074;28;20021;-84
2022/02/13 05:10:18;;;;;;;696.60;374.03;;;;;;;;;;5075753;28;20024;-82
2022/02/13 05:12:44;;;;;;;692.03;367.77;;;;;;;;;;5076009;28;20033;-83
2022/02/13 05:15:10;;;;;;;692.30;350.13;;;;;;;;;;5075377;28;20021;-82
2022/02/13 05:17:37;;;;;;;710.20;362.97;;;;;;;;;;5075808;28;20048;-83
2022/02/13 05:20:04;;;;;;;765.28;416.15;;;;;;;;;;5075888;28;20028;-83
2022/02/13 05:22:30;;;;;;;761.90;418.75;;;;;;;;;;5057582;28;20035;-82
2022/02/13 05:24:56;;;;;;;739.00;382.37;;;;;;;;;;5075723;28;20045;-83
2022/02/13 05:27:23;;;;;;;776.53;415.03;;;;;;;;;;5075565;28;20024;-83
2022/02/13 05:29:49;;;;;;;830.73;433.37;;;;;;;;;;5075438;28;20062;-82
2022/02/13 05:32:15;;;;;;;817.53;420.73;;;;;;;;;;5075608;28;20035;-82
2022/02/13 05:34:41;;;;;;;819.58;410.65;;;;;;;;;;5057537;28;20028;-82
2022/02/13 05:37:07;;;;;;;904.78;433.25;;;;;;;;;;5074964;28;20074;-83
2022/02/13 05:39:34;;;;;;;873.67;448.15;;;;;;;;;;5075354;28;20025;-83
2022/02/13 05:42:00;;;;;;;824.23;424.00;;;;;;;;;;5075305;28;20381;-83
2022/02/13 05:44:26;;;;;;;840.22;427.45;;;;;;;;;;5074870;28;20025;-80
2022/02/13 05:46:52;;;;;;;819.80;409.40;;;;;;;;;;5075048;28;20492;-82
2022/02/13 05:49:19;;;;;;;868.90;450.33;;;;;;;;;;5075073;28;20017;-81
2022/02/13 05:51:46;;;;;;;814.95;420.40;;;;;;;;;;5074556;28;20036;-81
2022/02/13 05:54:12;;;;;;;768.17;404.10;;;;;;;;;;5075024;28;20021;-81
2022/02/13 05:56:38;;;;;;;750.50;409.03;;;;;;;;;;5056916;28;20028;-83
2022/02/13 05:59:04;;;;;;;812.10;414.70;;;;;;;;;;5074453;28;20035;-83
2022/02/13 06:01:30;;;;;;;818.75;432.20;;;;;;;;;;5074961;28;20480;-84
2022/02/13 06:03:57;;;;;;;789.30;411.88;;;;;;;;;;5057228;28;20032;-84
2022/02/13 06:06:23;;;;;;;791.70;409.27;;;;;;;;;;5074450;28;20396;-82
2022/02/13 06:08:49;;;;;;;747.03;385.37;;;;;;;;;;5074991;28;20021;-82
2022/02/13 06:11:15;;;;;;;743.83;396.27;;;;;;;;;;5056257;28;20020;-81
2022/02/13 06:13:41;;;;;;;730.53;394.60;;;;;;;;;;5074804;28;20354;-82
2022/02/13 06:16:08;;;;;;;783.87;404.93;;;;;;;;;;5074541;28;20029;-81
2022/02/13 06:18:35;;;;;;;1037.13;467.98;;;;;;;;;;5077304;28;20099;-83
2022/02/13 06:21:01;;;;;;;1049.63;420.33;;;;;;;;;;5057032;28;20040;-82
2022/02/13 06:23:28;;;;;;;1061.28;440.33;;;;;;;;;;5074667;28;20025;-81
2022/02/13 06:25:54;;;;;;;983.10;447.98;;;;;;;;;;5074025;28;20059;-83
2022/02/13 06:28:21;;;;;;;901.25;444.25;;;;;;;;;;5074526;28;20024;-83
2022/02/13 06:30:47;;;;;;;942.83;430.20;;;;;;;;;;5074231;28;20342;-82
2022/02/13 06:33:14;;;;;;;1000.70;447.85;;;;;;;;;;5074230;28;20028;-82
2022/02/13 06:35:41;;;;;;;997.85;454.25;;;;;;;;;;5074296;28;20388;-82
2022/02/13 06:38:11;;;;;;;983.85;435.95;;;;;;;;;;5074492;28;20028;-83
2022/02/13 06:40:38;;;;;;;966.72;433.73;;;;;;;;;;5075229;28;20052;-83
2022/02/13 06:43:04;;;;;;;1004.85;442.60;;;;;;;;;;5075590;28;20033;-84
2022/02/13 06:45:30;;;;;;;1010.35;445.92;;;;;;;;;;5075420;28;20495;-79
2022/02/13 06:47:56;;;;;;;1020.17;461.38;;;;;;;;;;5074316;28;20117;-83
2022/02/13 06:50:22;;;;;;;1016.75;460.63;;;;;;;;;;5073881;28;20020;-81
2022/02/13 06:52:49;;;;;;;866.77;447.40;;;;;;;;;;5073934;28;20020;-81
2022/02/13 06:55:15;;;;;;;749.80;401.15;;;;;;;;;;5072950;28;20385;-81
2022/02/13 06:57:45;;;;;;;866.85;421.75;;;;;;;;;;5055871;28;20029;-83
2022/02/13 07:00:12;;;;;;;976.03;447.60;;;;;;;;;;5073902;28;20027;-84
2022/02/13 07:02:39;;;;;;;962.22;460.85;;;;;;;;;;5055947;28;20028;-85
2022/02/13 07:05:05;;;;;;;981.13;426.65;;;;;;;;;;5073944;28;20031;-84
2022/02/13 07:07:31;;;;;;;800.03;413.37;;;;;;;;;;5055809;28;20481;-83
2022/02/13 07:09:57;;;;;;;849.90;423.27;;;;;;;;;;5073747;28;20024;-84
2022/02/13 07:12:23;;;;;;;873.00;453.40;;;;;;;;;;5073528;28;20064;-81
2022/02/13 07:14:49;;;;;;;819.87;433.30;;;;;;;;;;5055302;28;20086;-82
2022/02/13 07:17:16;;;;;;;805.47;416.50;;;;;;;;;;5073572;28;20029;-82
2022/02/13 07:19:42;;;;;;;850.08;419.85;;;;;;;;;;5055693;28;20032;-84
2022/02/13 07:22:08;;;;;;;920.90;440.90;;;;;;;;;;5055259;28;20062;-83
2022/02/13 07:24:34;;;;;;;842.35;451.35;;;;;;;;;;5073392;28;20116;-84
2022/02/13 07:27:01;;;;;;;865.40;419.20;;;;;;;;;;5073648;28;20087;-85
2022/02/13 07:29:27;;;;;;;984.85;442.75;;;;;;;;;;5055627;28;20051;-82
2022/02/13 07:31:53;;;;;;;775.97;430.30;;;;;;;;;;5073447;28;20040;-83
2022/02/13 07:34:20;;;;;;;789.33;410.25;;;;;;;;;;5055422;28;20024;-82
2022/02/13 07:36:51;;;;;;;939.95;439.30;;;;;;;;;;5072899;28;20480;-81
2022/02/13 07:39:17;;;;;;;802.57;441.07;;;;;;;;;;5077785;28;20050;-82
2022/02/13 07:41:43;;;;;;;746.47;415.00;;;;;;;;;;5073346;28;20028;-82
2022/02/13 07:44:09;;;;;;;732.58;387.70;;;;;;;;;;5073043;28;20055;-82
2022/02/13 07:46:36;;;;;;;750.85;384.15;;;;;;;;;;5055370;28;20040;-83
2022/02/13 07:49:05;;;;;;;783.37;411.10;;;;;;;;;;5073313;28;20027;-83
2022/02/13 07:51:32;;;;;;;793.13;434.73;;;;;;;;;;5072920;28;20021;-81
2022/02/13 07:53:58;;;;;;;770.10;399.73;;;;;;;;;;5073288;28;20468;-80
2022/02/13 07:56:25;;;;;;;823.93;430.00;;;;;;;;;;5073150;28;20096;-81
2022/02/13 07:58:52;;;;;;;831.03;417.77;;;;;;;;;;5072944;28;20536;-83
2022/02/13 08:01:21;;;;;;;813.47;411.07;;;;;;;;;;5055259;28;20036;-85
2022/02/13 08:03:47;;;;;;;799.20;404.98;;;;;;;;;;5073419;28;20020;-84
2022/02/13 08:06:15;;;;;;;781.67;400.83;;;;;;;;;;5073185;28;20036;-84
2022/02/13 08:08:42;;;;;;;819.10;415.43;;;;;;;;;;5075880;28;20021;-84
2022/02/13 08:11:09;;;;;;;779.47;409.30;;;;;;;;;;5076680;28;20436;-82
2022/02/13 08:13:36;;;;;;;779.67;418.25;;;;;;;;;;5077000;28;20032;-83
2022/02/13 08:16:02;;;;;;;751.30;418.07;;;;;;;;;;5076696;28;20028;-83
2022/02/13 08:18:28;;;;;;;754.63;390.30;;;;;;;;;;5058458;28;20024;-81
2022/02/13 08:20:55;;;;;;;156.98;140.30;;;;;;;;;;5075891;28;20373;-82
2022/02/13 08:23:21;;;;;;;;;;;;;;;;;;5077415;28;20021;-83
2022/02/13 08:25:48;;;;;;;;;;;;;;;;;;5076538;28;20296;-83
2022/02/13 08:28:14;;;;;;;;;;;;;;;;;;5077251;28;19911;-84
2022/02/13 08:30:41;;;;;;;;;;;;;;;;;;5077052;28;19905;-84
2022/02/13 08:33:07;;;;;;;;;;;;;;;;;;5076845;28;19912;-83
2022/02/13 08:35:33;;;;;;;;;;;;;;;;;;5076874;28;19909;-82
2022/02/13 08:38:00;;;;;;;;;;;;;;;;;;5077323;28;19904;-82
2022/02/13 08:40:26;;;;;;;;;;;;;;;;;;5076594;28;19904;-82
2022/02/13 08:42:52;;;;;;;;;;;;;;;;;;5058791;28;20414;-82
2022/02/13 08:45:18;;;;;;;;;;;;;;;;;;5058663;28;19947;-82
2022/02/13 08:47:44;;;;;;;;;;;;;;;;;;5076198;28;19908;-82
2022/02/13 08:50:10;;;;;;;;;;;;;;;;;;5076597;28;20280;-81
2022/02/13 08:52:36;;;;;;;;;;;;;;;;;;5076574;28;19926;-83
2022/02/13 08:55:02;;;;;;;;;;;;;;;;;;5076196;28;19905;-81
2022/02/13 08:57:28;;;;;;;;;;;;;;;;;;5076689;28;20261;-81
2022/02/13 08:59:54;;;;;;;;;;;;;;;;;;5081738;28;19904;-84
2022/02/13 09:02:20;;;;;;;;;;;;;;;;;;5077068;28;20463;-84
2022/02/13 09:04:46;;;;;;;;;;;;;;;;;;5077323;28;20254;-84
2022/02/13 09:07:12;;;;;;;;;;;;;;;;;;5058416;28;19911;-82
2022/02/13 09:09:43;;;;;;;;;;;;;;;;;;5059154;28;20324;-84
2022/02/13 09:12:09;;;;;;;;;;;;;;;;;;5077188;28;20421;-80
2022/02/13 09:14:36;;;;;;;;;;;;;;;;;;5059157;28;19904;-83
2022/02/13 09:17:01;;;;;;;;;;;;;;;;;;5076716;28;19992;-81
2022/02/13 09:19:28;;;;;;;;;;;;;;;;;;5075841;28;19947;-80
2022/02/13 09:21:54;;;;;;;;;;;;;;;;;;5076624;28;19950;-80
2022/02/13 09:24:20;;;;;;;;;;;;;;;;;;5075921;28;19904;-81
2022/02/13 09:26:46;;;;;;;;;;;;;;;;;;5076052;28;19912;-82
2022/02/13 09:29:12;;;;;;;;;;;;;;;;;;5076082;28;19910;-82
2022/02/13 09:31:38;;;;;;;;;;;;;;;;;;5075908;28;19905;-83
2022/02/13 09:34:04;;;;;;;;;;;;;;;;;;5057687;28;20272;-82
2022/02/13 09:36:30;;;;;;;;;;;;;;;;;;5075488;28;19912;-81
2022/02/13 09:38:56;;;;;;;;;;;;;;;;;;5075608;28;19905;-82
2022/02/13 09:41:22;;;;;;;;;;;;;;;;;;5075611;28;19911;-81
2022/02/13 09:43:48;;;;;;;;;;;;;;;;;;5075174;28;19911;-80
2022/02/13 09:46:14;;;;;;;;;;;;;;;;;;5075550;28;20007;-81
2022/02/13 09:48:40;;;;;;;;;;;;;;;;;;5075649;28;19936;-82
2022/02/13 09:51:06;;;;;;;;;;;;;;;;;;5057269;28;19905;-80
2022/02/13 09:53:35;;;;;;;;;;;;;;;;;;5075610;28;19911;-83
2022/02/13 09:56:01;;;;;;;;;;;;;;;;;;5057221;28;19908;-80
2022/02/13 09:58:27;;;;;;;;;;;;;;;;;;5074859;28;19957;-82
2022/02/13 10:00:53;;;;;;;;;;;;;;;;;;5075500;28;20346;-85
2022/02/13 10:03:19;;;;;;;;;;;;;;;;;;5075971;28;19904;-84
2022/02/13 10:05:45;;;;;;;;;;;;;;;;;;5075306;28;19915;-82
2022/02/13 10:08:11;;;;;;;;;;;;;;;;;;5075287;28;20029;-82
2022/02/13 10:10:37;;;;;;;;;;;;;;;;;;5074803;28;19904;-83
2022/02/13 10:13:04;;;;;;;;;;;;;;;;;;5057051;28;20006;-81
2022/02/13 10:15:30;;;;;;;;;;;;;;;;;;5057188;28;19904;-82
2022/02/13 10:17:56;;;;;;;;;;;;;;;;;;5056660;28;20311;-82
2022/02/13 10:20:22;;;;;;;;;;;;;;;;;;5078958;28;19911;-82
2022/02/13 10:22:48;;;;;;;;;;;;;;;;;;5075291;28;19909;-83
2022/02/13 10:25:15;;;;;;;;;;;;;;;;;;5074379;28;20377;-83
2022/02/13 10:27:40;;;;;;;;;;;;;;;;;;5074828;28;19913;-84
2022/02/13 10:30:08;;;;;;;;;;;;;;;;;;5074206;28;19950;-84
2022/02/13 10:32:34;;;;;;;;;;;;;;;;;;5056355;28;19909;-83
2022/02/13 10:35:00;;;;;;;;;;;;;;;;;;5075196;28;19904;-83
2022/02/13 10:37:26;;;;;;;;;;;;;;;;;;5074507;28;19905;-83
2022/02/13 10:39:52;;;;;;;;;;;;;;;;;;5074369;28;20392;-83
2022/02/13 10:42:18;;;;;;;;;;;;;;;;;;5074383;28;19954;-83
2022/02/13 10:44:44;;;;;;;;;;;;;;;;;;5074797;28;20375;-84
2022/02/13 10:47:10;;;;;;;;;;;;;;;;;;5074386;28;19912;-83
2022/02/13 10:49:38;;;;;;;;;;;;;;;;;;5074554;28;19904;-84
2022/02/13 10:52:04;;;;;;;;;;;;;;;;;;5056373;28;20046;-83
2022/02/13 10:54:30;;;;;;;;;;;;;;;;;;5074204;28;19962;-83
2022/02/13 10:56:56;;;;;;;;;;;;;;;;;;5074643;28;19911;-84
2022/02/13 10:59:22;;;;;;;;;;;;;;;;;;5075334;28;19904;-83
2022/02/13 11:01:49;;;;;;;;;;;;;;;;;;5074270;28;19908;-87
2022/02/13 11:04:15;;;;;;;;;;;;;;;;;;5074869;28;19908;-87
2022/02/13 11:06:41;;;;;;;;;;;;;;;;;;5074459;28;19955;-84
2022/02/13 11:09:07;;;;;;;;;;;;;;;;;;5074420;28;19905;-85
2022/02/13 11:11:33;;;;;;;;;;;;;;;;;;5058062;28;19908;-87
2022/02/13 11:13:59;;;;;;;;;;;;;;;;;;5075373;28;19947;-87
2022/02/13 11:16:25;;;;;;;;;;;;;;;;;;5057220;28;20272;-86
2022/02/13 11:18:53;;;;;;;;;;;;;;;;;;5057698;28;19934;-86
2022/02/13 11:21:19;;;;;;;;;;;;;;;;;;5075224;28;19940;-86
2022/02/13 11:23:45;;;;;;;;;;;;;;;;;;5075339;28;19950;-87
2022/02/13 11:26:11;;;;;;;;;;;;;;;;;;5075082;28;20372;-85
2022/02/13 11:28:37;;;;;;;;;;;;;;;;;;5057133;28;19904;-87
2022/02/13 11:31:04;;;;;;;;;;;;;;;;;;5074755;28;19908;-86
2022/02/13 11:33:30;;;;;;;;;;;;;;;;;;5074558;28;19904;-84
2022/02/13 11:35:57;;;;;;;;;;;;;;;;;;5073834;28;20273;-85
2022/02/13 11:38:23;;;;;;;;;;;;;;;;;;5074423;28;19904;-86
2022/02/13 11:40:49;;;;;;;;;;;;;;;;;;5077748;28;19950;-83
2022/02/13 11:43:15;;;;;;;;;;;;;;;;;;5079490;28;19949;-84
2022/02/13 11:45:41;;;;;;;;;;;;;;;;;;5061156;28;19915;-84
2022/02/13 11:48:07;;;;;;;;;;;;;;;;;;5078790;28;19904;-85
2022/02/13 11:50:33;;;;;;;;;;;;;;;;;;5078314;28;19908;-84
2022/02/13 11:52:59;;;;;;;;;;;;;;;;;;5078233;28;19905;-83
2022/02/13 11:55:27;;;;;;;;;;;;;;;;;;5077954;28;19904;-84
2022/02/13 11:57:53;;;;;;;;;;;;;;;;;;5077962;28;19918;-84
2022/02/13 12:00:36;;;;;;;;;;;;;;;;;;5093196;27;19916;-87
2022/02/13 12:03:02;;;;;;;;;;;;;;;;;;5091850;28;19935;-83
2022/02/13 12:05:28;;;;;;;;;;;;;;;;;;5091251;28;20356;-83
2022/02/13 12:07:54;;;;;;;;;;;;;;;;;;5091636;28;20008;-84
2022/02/13 12:10:20;;;;;;;;;;;;;;;;;;5090006;28;19938;-83
2022/02/13 12:12:47;;;;;;;;;;;;;;;;;;5090139;28;19912;-83
2022/02/13 12:15:30;;;;;;;;;;;;;;;;;;5112572;27;20295;-83
2022/02/13 12:19:21;;;;;;;;;;;;;;;;;;5112078;27;19916;-84
2022/02/13 12:21:47;;;;;;;;;;;;;;;;;;5112301;28;20339;-85
2022/02/13 12:27:00;;;;;;;19.77;13.30;;;;;;;;;;5132437;27;20308;-83
2022/02/13 12:29:26;;;;;;;14.57;8.25;;;;;;;;;;5111559;28;20023;-81
2022/02/13 12:39:38;;;;;;;16.45;9.07;;;;;;;;;;5114023;27;20369;-81
2022/02/13 12:42:04;;;;;;;13.02;7.47;;;;;;;;;;5111662;28;20027;-83
2022/02/13 12:44:50;;;;;;;11.32;7.45;;;;;;;;;;5112450;28;20020;-83
2022/02/13 12:48:37;;;;;;;14.43;8.05;;;;;;;;;;5112035;27;20392;-82
2022/02/13 12:53:04;;;;;;;17.63;11.07;;;;;;;;;;5111637;27;20396;-82
2022/02/13 12:57:16;;;;;;;15.40;9.05;;;;;;;;;;5071443;28;20411;-83
2022/02/13 13:00:20;;;;;;;15.23;9.90;;;;;;;;;;5113348;27;20795;-84
2022/02/13 13:03:14;;;;;;;19.95;11.57;;;;;;;;;;5114660;27;20389;-82
2022/02/13 13:05:42;;;;;;;21.60;13.38;;;;;;;;;;5111613;28;20024;-85
2022/02/13 13:08:09;;;;;;;18.30;9.68;;;;;;;;;;5111099;28;20027;-82
2022/02/13 13:10:35;;;;;;;14.23;8.35;;;;;;;;;;5111518;28;20085;-83
2022/02/13 13:13:06;;;;;;;22.23;12.10;;;;;;;;;;5111267;28;20024;-83
2022/02/13 13:16:39;;;;;;;22.58;14.00;;;;;;;;;;5070966;28;21017;-84
2022/02/13 13:20:38;;;;;;;19.42;11.35;;;;;;;;;;5111635;27;20385;-86
2022/02/13 13:24:57;;;;;;;20.02;10.52;;;;;;;;;;5112312;27;21032;-83
2022/02/13 13:27:24;;;;;;;17.55;10.13;;;;;;;;;;5111530;28;20024;-84
2022/02/13 13:29:50;;;;;;;23.17;13.38;;;;;;;;;;5111041;28;20102;-82
2022/02/13 13:33:02;;;;;;;31.65;18.42;;;;;;;;;;5112415;27;20524;-85
2022/02/13 13:35:32;;;;;;;22.98;13.05;;;;;;;;;;5109763;28;20028;-80
2022/02/13 13:37:58;;;;;;;17.02;10.07;;;;;;;;;;5111311;28;20091;-84
2022/02/13 13:40:26;;;;;;;22.15;13.55;;;;;;;;;;5109943;28;20020;-80
2022/02/13 13:43:13;;;;;;;28.58;17.20;;;;;;;;;;5131560;27;20315;-83
2022/02/13 13:45:43;;;;;;;31.60;16.38;;;;;;;;;;5093401;28;20035;-82
2022/02/13 13:48:13;;;;;;;32.20;17.77;;;;;;;;;;5111551;28;20038;-81
2022/02/13 13:50:52;;;;;;;23.58;12.95;;;;;;;;;;5111470;27;20412;-80
2022/02/13 13:53:19;;;;;;;19.77;10.63;;;;;;;;;;5110127;28;20425;-80
2022/02/13 13:55:47;;;;;;;29.08;15.35;;;;;;;;;;5111306;28;20484;-82
2022/02/13 13:59:48;;;;;;;32.50;17.55;;;;;;;;;;5112644;27;20423;-83
2022/02/13 14:03:23;;;;;;;28.05;16.13;;;;;;;;;;5112239;27;20524;-84
2022/02/13 14:05:49;;;;;;;26.92;16.58;;;;;;;;;;5112062;28;20023;-84
2022/02/13 14:08:15;;;;;;;20.73;12.85;;;;;;;;;;5110328;28;20118;-83
2022/02/13 14:10:43;;;;;;;28.50;13.98;;;;;;;;;;5111120;28;20361;-84
2022/02/13 14:13:10;;;;;;;31.48;14.60;;;;;;;;;;5111399;28;20019;-82
2022/02/13 14:15:37;;;;;;;26.88;14.75;;;;;;;;;;5111247;28;20034;-83
2022/02/13 14:18:03;;;;;;;39.78;22.02;;;;;;;;;;5110743;28;20024;-82
2022/02/13 14:20:30;;;;;;;23.15;14.50;;;;;;;;;;5111597;28;20097;-82
2022/02/13 14:22:56;;;;;;;39.08;23.20;;;;;;;;;;5112383;28;20040;-84
2022/02/13 14:25:24;;;;;;;54.45;23.05;;;;;;;;;;5111036;28;20508;-82
2022/02/13 14:27:50;;;;;;;24.00;12.57;;;;;;;;;;5111451;28;20080;-85
2022/02/13 14:30:17;;;;;;;30.52;16.00;;;;;;;;;;5111325;28;20028;-84
2022/02/13 14:32:43;;;;;;;27.70;17.50;;;;;;;;;;5109433;28;20508;-83
2022/02/13 14:35:09;;;;;;;33.03;21.40;;;;;;;;;;5110814;28;20057;-83
2022/02/13 14:37:37;;;;;;;26.17;17.27;;;;;;;;;;5110788;28;20024;-84
2022/02/13 14:40:04;;;;;;;37.25;18.30;;;;;;;;;;5110316;28;20074;-82
2022/02/13 14:42:30;;;;;;;45.65;21.85;;;;;;;;;;5110924;28;20452;-80
2022/02/13 14:44:56;;;;;;;42.75;22.05;;;;;;;;;;5110683;28;20471;-82
2022/02/13 14:47:23;;;;;;;52.28;26.55;;;;;;;;;;5109381;28;20035;-81
2022/02/13 14:49:49;;;;;;;30.17;16.50;;;;;;;;;;5109429;28;20024;-81
2022/02/13 14:52:17;;;;;;;33.85;20.60;;;;;;;;;;5110387;28;20020;-82
2022/02/13 14:54:43;;;;;;;36.17;18.25;;;;;;;;;;5110623;28;20030;-82
2022/02/13 14:57:12;;;;;;;27.88;16.00;;;;;;;;;;5109295;28;20096;-82
2022/02/13 14:59:38;;;;;;;18.02;10.63;;;;;;;;;;5110231;28;20027;-84
2022/02/13 15:02:06;;;;;;;20.77;12.55;;;;;;;;;;5110650;28;20048;-84
2022/02/13 15:04:32;;;;;;;18.52;11.15;;;;;;;;;;5110668;28;20500;-84